createdAt,value
2023-04-22T00:00:19.794Z,279.11
2023-04-22T00:03:26.044Z,239.40
2023-04-22T00:06:32.974Z,222.38
2023-04-22T00:09:39.592Z,200.28
2023-04-22T00:12:49.215Z,185.34
2023-04-22T00:15:56.578Z,169.38
2023-04-22T00:19:03.511Z,176.63
2023-04-22T00:22:09.532Z,184.15
2023-04-22T00:25:16.515Z,186.13
2023-04-22T00:28:25.056Z,194.96
2023-04-22T00:31:32.162Z,196.06
2023-04-22T00:34:38.160Z,196.19
2023-04-22T00:37:45.908Z,196.76
2023-04-22T00:40:51.966Z,193.63
2023-04-22T00:44:04.103Z,196.54
2023-04-22T00:47:11.620Z,199.62
2023-04-22T00:50:23.449Z,198.11
2023-04-22T00:53:29.446Z,197.74
2023-04-22T00:56:40.380Z,201.71
2023-04-22T00:59:50.508Z,202.16
2023-04-22T01:02:58.294Z,222.55
2023-04-22T01:06:04.712Z,234.90
2023-04-22T01:09:11.597Z,256.53
2023-04-22T01:12:17.850Z,223.56
2023-04-22T01:15:32.842Z,202.06
2023-04-22T01:18:39.917Z,201.44
2023-04-22T01:21:49.210Z,203.09
2023-04-22T01:24:58.325Z,194.36
2023-04-22T01:28:06.828Z,192.51
2023-04-22T01:31:13.221Z,191.24
2023-04-22T01:34:20.119Z,186.55
2023-04-22T01:37:30.073Z,193.97
2023-04-22T01:40:40.627Z,197.56
2023-04-22T01:43:47.844Z,202.14
2023-04-22T01:46:54.584Z,204.77
2023-04-22T01:50:00.636Z,204.06
2023-04-22T01:53:14.713Z,206.74
2023-04-22T01:56:23.334Z,199.33
2023-04-22T01:59:30.599Z,196.99
2023-04-22T02:02:39.033Z,201.95
2023-04-22T02:05:45.816Z,211.91
2023-04-22T02:08:52.075Z,201.17
2023-04-22T02:12:04.999Z,206.35
2023-04-22T02:15:13.143Z,213.81
2023-04-22T02:18:21.026Z,218.71
2023-04-22T02:21:27.239Z,228.04
2023-04-22T02:24:34.222Z,227.70
2023-04-22T02:27:42.745Z,224.95
2023-04-22T02:30:50.345Z,205.82
2023-04-22T02:33:56.275Z,217.92
2023-04-22T02:37:05.043Z,222.52
2023-04-22T02:40:12.456Z,224.66
2023-04-22T02:43:21.783Z,230.72
2023-04-22T02:46:27.797Z,271.90
2023-04-22T02:49:34.491Z,266.94
2023-04-22T02:52:41.829Z,271.00
2023-04-22T02:55:48.661Z,256.04
2023-04-22T02:59:09.025Z,263.03
2023-04-22T03:02:29.069Z,259.51
2023-04-22T03:05:46.734Z,270.87
2023-04-22T03:08:53.734Z,268.06
2023-04-22T03:11:59.799Z,263.25
2023-04-22T03:15:11.403Z,278.46
2023-04-22T03:18:17.340Z,292.22
2023-04-22T03:21:24.562Z,301.53
2023-04-22T03:24:31.053Z,305.38
2023-04-22T03:27:42.538Z,327.19
2023-04-22T03:30:52.445Z,321.67
2023-04-22T03:33:59.345Z,395.13
2023-04-22T03:37:08.230Z,388.48
2023-04-22T03:40:15.919Z,372.30
2023-04-22T03:43:21.884Z,349.59
2023-04-22T03:46:41.529Z,377.38
2023-04-22T03:49:59.260Z,371.13
2023-04-22T03:53:05.985Z,341.84
2023-04-22T03:56:16.347Z,326.86
2023-04-22T03:59:28.017Z,320.53
2023-04-22T04:02:37.473Z,327.68
2023-04-22T04:05:44.661Z,334.74
2023-04-22T04:08:50.929Z,338.13
2023-04-22T04:11:58.484Z,341.15
2023-04-22T04:15:19.298Z,330.36
2023-04-22T04:18:29.928Z,339.81
2023-04-22T04:21:40.698Z,331.64
2023-04-22T04:24:47.758Z,340.25
2023-04-22T04:27:59.420Z,363.12
2023-04-22T04:31:06.498Z,369.06
2023-04-22T04:34:15.470Z,379.82
2023-04-22T04:37:22.719Z,383.64
2023-04-22T04:40:46.659Z,384.80
2023-04-22T04:44:00.861Z,373.01
2023-04-22T04:47:15.410Z,380.45
2023-04-22T04:50:29.053Z,412.73
2023-04-22T04:53:41.074Z,428.03
2023-04-22T04:56:53.955Z,365.67
2023-04-22T05:00:00.028Z,332.50
2023-04-22T05:03:08.981Z,329.11
2023-04-22T05:06:17.939Z,340.11
2023-04-22T05:09:39.362Z,356.47
2023-04-22T05:12:48.133Z,367.42
2023-04-22T05:16:01.044Z,374.13
2023-04-22T05:19:08.947Z,381.97
2023-04-22T05:22:18.982Z,371.86
2023-04-22T05:25:39.572Z,369.23
2023-04-22T05:28:51.551Z,353.11
2023-04-22T05:31:58.622Z,337.14
2023-04-22T05:35:10.694Z,329.67
2023-04-22T05:38:19.216Z,323.98
2023-04-22T05:41:26.515Z,308.65
2023-04-22T05:44:34.453Z,298.76
2023-04-22T05:47:42.069Z,300.14
2023-04-22T05:50:51.333Z,305.00
2023-04-22T05:54:01.012Z,298.63
2023-04-22T05:57:09.821Z,304.21
2023-04-22T06:00:19.462Z,316.75
2023-04-22T06:03:38.217Z,308.89
2023-04-22T06:06:45.309Z,312.25
2023-04-22T06:10:04.523Z,315.54
2023-04-22T06:13:16.610Z,331.65
2023-04-22T06:16:26.564Z,335.70
2023-04-22T06:19:33.648Z,335.24
2023-04-22T06:22:40.474Z,332.57
2023-04-22T06:25:51.933Z,327.98
2023-04-22T06:28:58.063Z,316.55
2023-04-22T06:32:08.061Z,300.20
2023-04-22T06:35:14.337Z,308.29
2023-04-22T06:38:21.250Z,298.05
2023-04-22T06:42:01.856Z,262.76
2023-04-22T06:45:49.091Z,264.27
2023-04-22T06:49:36.009Z,247.04
2023-04-22T06:53:09.132Z,251.78
2023-04-22T06:56:26.037Z,300.55
2023-04-22T06:59:35.478Z,300.46
2023-04-22T07:02:41.569Z,287.00
2023-04-22T07:05:49.219Z,280.63
2023-04-22T07:08:55.344Z,273.89
2023-04-22T07:12:02.796Z,285.74
2023-04-22T07:15:20.003Z,299.43
2023-04-22T07:18:26.810Z,292.49
2023-04-22T07:21:32.870Z,323.60
2023-04-22T07:24:40.238Z,306.37
2023-04-22T07:27:52.286Z,323.60
2023-04-22T07:31:01.823Z,278.96
2023-04-22T07:34:14.567Z,301.28
2023-04-22T07:37:21.398Z,258.88
2023-04-22T07:40:27.461Z,230.15
2023-04-22T07:43:34.823Z,239.31
2023-04-22T07:46:50.536Z,247.87
2023-04-22T07:49:57.228Z,247.66
2023-04-22T07:53:11.436Z,231.65
2023-04-22T07:56:18.260Z,221.08
2023-04-22T07:59:24.211Z,221.43
2023-04-22T08:02:33.705Z,198.61
2023-04-22T08:05:39.859Z,215.37
2023-04-22T08:08:46.665Z,196.91
2023-04-22T08:11:52.645Z,191.47
2023-04-22T08:14:59.779Z,156.78
2023-04-22T08:18:16.767Z,161.13
2023-04-22T08:21:23.527Z,139.34
2023-04-22T08:24:29.449Z,123.87
2023-04-22T08:27:36.361Z,149.35
2023-04-22T08:30:42.299Z,132.55
2023-04-22T08:33:51.763Z,122.03
2023-04-22T08:36:57.919Z,103.61
2023-04-22T08:40:06.315Z,105.56
2023-04-22T08:43:12.935Z,100.17
2023-04-22T08:46:24.421Z,93.25
2023-04-22T08:49:38.133Z,119.36
2023-04-22T08:52:45.939Z,94.40
2023-04-22T08:55:53.720Z,79.45
2023-04-22T08:59:02.191Z,68.56
2023-04-22T09:02:10.456Z,67.46
2023-04-22T09:05:20.203Z,79.21
2023-04-22T09:08:26.271Z,64.05
2023-04-22T09:11:35.175Z,73.75
2023-04-22T09:14:42.813Z,58.98
2023-04-22T09:17:49.651Z,69.87
2023-04-22T09:20:59.920Z,62.12
2023-04-22T09:24:09.913Z,65.34
2023-04-22T09:27:15.894Z,62.34
2023-04-22T09:30:31.216Z,75.13
2023-04-22T09:33:41.791Z,105.49
2023-04-22T09:36:55.228Z,83.28
2023-04-22T09:40:01.208Z,66.76
2023-04-22T09:43:17.300Z,64.54
2023-04-22T09:46:25.278Z,68.92
2023-04-22T09:49:32.176Z,140.31
2023-04-22T09:52:48.685Z,114.53
2023-04-22T09:55:59.555Z,84.92
2023-04-22T09:59:05.595Z,71.68
2023-04-22T10:02:16.648Z,67.88
2023-04-22T10:05:37.303Z,67.31
2023-04-22T10:08:49.069Z,61.44
2023-04-22T10:11:59.438Z,68.36
2023-04-22T10:15:06.774Z,62.14
2023-04-22T10:18:19.857Z,64.19
2023-04-22T10:21:29.641Z,60.13
2023-04-22T10:24:42.670Z,64.41
2023-04-22T10:27:57.625Z,62.82
2023-04-22T10:31:12.357Z,61.68
2023-04-22T10:34:19.269Z,54.75
2023-04-22T10:37:28.280Z,63.20
2023-04-22T10:40:44.275Z,56.37
2023-04-22T10:44:00.656Z,50.53
2023-04-22T10:47:07.396Z,53.76
2023-04-22T10:50:21.513Z,58.67
2023-04-22T10:53:43.077Z,59.07
2023-04-22T10:57:10.261Z,56.83
2023-04-22T11:00:51.799Z,62.79
2023-04-22T11:04:26.456Z,63.63
2023-04-22T11:07:36.616Z,57.11
2023-04-22T11:10:46.225Z,60.26
2023-04-22T11:13:57.602Z,67.40
2023-04-22T11:17:08.880Z,55.31
2023-04-22T11:20:25.413Z,53.35
2023-04-22T11:23:40.682Z,58.00
2023-04-22T11:26:49.220Z,49.91
2023-04-22T11:30:07.970Z,46.60
2023-04-22T11:33:20.284Z,45.72
2023-04-22T11:36:26.793Z,44.75
2023-04-22T11:39:47.569Z,55.74
2023-04-22T11:43:08.186Z,49.81
2023-04-22T11:46:18.390Z,47.71
2023-04-22T11:49:27.134Z,46.18
2023-04-22T11:52:51.190Z,45.00
2023-04-22T11:55:57.318Z,47.06
2023-04-22T11:59:04.080Z,44.07
2023-04-22T12:02:16.863Z,43.25
2023-04-22T12:05:23.747Z,41.91
2023-04-22T12:08:37.102Z,39.47
2023-04-22T12:11:44.358Z,39.92
2023-04-22T12:14:57.321Z,43.96
2023-04-22T12:18:08.169Z,43.16
2023-04-22T12:21:16.607Z,39.14
2023-04-22T12:24:23.566Z,39.33
2023-04-22T12:27:29.651Z,41.05
2023-04-22T12:30:36.593Z,42.61
2023-04-22T12:33:46.541Z,43.35
2023-04-22T12:36:55.314Z,40.84
2023-04-22T12:40:01.598Z,44.16
2023-04-22T12:43:08.902Z,44.67
2023-04-22T12:46:15.294Z,43.50
2023-04-22T12:49:25.262Z,44.36
2023-04-22T12:52:31.573Z,40.08
2023-04-22T12:55:39.729Z,39.04
2023-04-22T12:58:45.696Z,38.31
2023-04-22T13:01:52.555Z,45.15
2023-04-22T13:05:01.230Z,41.91
2023-04-22T13:08:08.481Z,46.10
2023-04-22T13:11:14.441Z,46.85
2023-04-22T13:14:21.525Z,46.53
2023-04-22T13:17:27.718Z,44.37
2023-04-22T13:20:37.276Z,43.79
2023-04-22T13:23:43.566Z,42.57
2023-04-22T13:26:51.655Z,45.24
2023-04-22T13:30:01.067Z,44.95
2023-04-22T13:33:20.356Z,49.33
2023-04-22T13:36:29.663Z,52.03
2023-04-22T13:39:38.980Z,50.51
2023-04-22T13:42:45.268Z,54.46
2023-04-22T13:45:52.894Z,53.74
2023-04-22T13:48:59.331Z,52.68
2023-04-22T13:52:08.808Z,54.47
2023-04-22T13:55:16.953Z,57.66
2023-04-22T13:58:25.823Z,52.61
2023-04-22T14:01:32.829Z,51.84
2023-04-22T14:04:39.894Z,52.39
2023-04-22T14:07:48.892Z,52.15
2023-04-22T14:10:59.684Z,51.19
2023-04-22T14:14:06.525Z,51.33
2023-04-22T14:17:13.685Z,50.18
2023-04-22T14:20:19.779Z,51.96
2023-04-22T14:23:29.175Z,54.62
2023-04-22T14:26:37.934Z,54.35
2023-04-22T14:29:52.522Z,53.35
2023-04-22T14:33:07.454Z,52.54
2023-04-22T14:36:24.987Z,53.75
2023-04-22T14:39:33.679Z,54.20
2023-04-22T14:42:40.798Z,54.55
2023-04-22T14:45:46.780Z,49.68
2023-04-22T14:48:56.290Z,54.66
2023-04-22T14:52:02.552Z,53.24
2023-04-22T14:55:22.448Z,57.90
2023-04-22T14:58:31.845Z,56.41
2023-04-22T15:01:42.066Z,55.03
2023-04-22T15:04:48.285Z,56.15
2023-04-22T15:07:55.236Z,56.30
2023-04-22T15:11:03.903Z,57.21
2023-04-22T15:14:10.696Z,55.28
2023-04-22T15:17:16.925Z,53.63
2023-04-22T15:20:23.760Z,56.27
2023-04-22T15:23:29.803Z,54.27
2023-04-22T15:26:42.023Z,58.76
2023-04-22T15:29:48.632Z,56.47
2023-04-22T15:32:55.596Z,55.92
2023-04-22T15:36:04.477Z,54.70
2023-04-22T15:39:11.618Z,57.99
2023-04-22T15:42:24.641Z,54.98
2023-04-22T15:45:31.610Z,55.92
2023-04-22T15:48:37.720Z,55.25
2023-04-22T15:51:45.186Z,57.99
2023-04-22T15:55:01.963Z,57.70
2023-04-22T15:58:11.398Z,65.91
2023-04-22T16:01:19.315Z,60.48
2023-04-22T16:04:27.834Z,54.97
2023-04-22T16:07:34.897Z,57.03
2023-04-22T16:10:41.721Z,57.73
2023-04-22T16:13:50.434Z,57.90
2023-04-22T16:16:57.441Z,55.21
2023-04-22T16:20:06.241Z,52.90
2023-04-22T16:23:13.129Z,57.11
2023-04-22T16:26:19.138Z,57.64
2023-04-22T16:29:28.762Z,55.25
2023-04-22T16:32:34.967Z,57.76
2023-04-22T16:35:41.983Z,61.50
2023-04-22T16:38:48.046Z,59.44
2023-04-22T16:41:55.250Z,65.02
2023-04-22T16:45:03.993Z,65.90
2023-04-22T16:48:10.952Z,65.36
2023-04-22T16:51:19.339Z,61.65
2023-04-22T16:54:28.312Z,62.27
2023-04-22T16:57:34.404Z,65.10
2023-04-22T17:00:45.251Z,67.00
2023-04-22T17:03:52.760Z,65.89
2023-04-22T17:06:59.708Z,67.41
2023-04-22T17:10:05.795Z,68.13
2023-04-22T17:13:12.552Z,67.73
2023-04-22T17:16:21.356Z,70.06
2023-04-22T17:19:28.697Z,76.71
2023-04-22T17:22:34.669Z,92.13
2023-04-22T17:25:41.523Z,133.32
2023-04-22T17:28:47.550Z,151.00
2023-04-22T17:31:57.167Z,166.83
2023-04-22T17:35:09.495Z,225.87
2023-04-22T17:38:31.527Z,269.55
2023-04-22T17:41:37.689Z,209.72
2023-04-22T17:44:44.593Z,226.40
2023-04-22T17:47:55.971Z,266.06
2023-04-22T17:51:06.851Z,357.45
2023-04-22T17:54:12.861Z,392.69
2023-04-22T17:57:19.724Z,269.45
2023-04-22T18:00:27.198Z,187.92
2023-04-22T18:03:37.484Z,199.59
2023-04-22T18:06:44.496Z,186.77
2023-04-22T18:10:08.432Z,167.20
2023-04-22T18:13:14.495Z,147.72
2023-04-22T18:16:21.392Z,142.64
2023-04-22T18:19:30.027Z,166.98
2023-04-22T18:22:37.328Z,187.83
2023-04-22T18:25:43.584Z,191.67
2023-04-22T18:28:50.392Z,176.28
2023-04-22T18:32:00.434Z,405.87
2023-04-22T18:35:12.806Z,289.99
2023-04-22T18:38:19.210Z,326.48
2023-04-22T18:41:26.590Z,309.56
2023-04-22T18:44:32.574Z,301.70
2023-04-22T18:47:39.433Z,305.83
2023-04-22T18:50:48.188Z,201.06
2023-04-22T18:53:55.080Z,212.45
2023-04-22T18:57:02.256Z,238.86
2023-04-22T19:00:13.015Z,233.20
2023-04-22T19:03:19.946Z,302.07
2023-04-22T19:06:29.575Z,227.07
2023-04-22T19:09:35.749Z,218.67
2023-04-22T19:12:42.679Z,212.86
2023-04-22T19:15:48.680Z,221.09
2023-04-22T19:18:55.705Z,240.25
2023-04-22T19:22:12.669Z,238.37
2023-04-22T19:25:20.640Z,222.48
2023-04-22T19:28:26.986Z,213.61
2023-04-22T19:31:46.595Z,218.51
2023-04-22T19:34:53.048Z,209.37
2023-04-22T19:38:02.462Z,199.08
2023-04-22T19:41:09.502Z,199.27
2023-04-22T19:44:16.449Z,203.93
2023-04-22T19:47:22.930Z,205.85
2023-04-22T19:50:37.510Z,190.35
2023-04-22T19:53:49.457Z,191.44
2023-04-22T19:56:58.238Z,176.34
2023-04-22T20:00:12.651Z,176.51
2023-04-22T20:03:20.598Z,156.31
2023-04-22T20:06:28.416Z,154.10
2023-04-22T20:09:40.246Z,152.60
2023-04-22T20:12:48.207Z,164.45
2023-04-22T20:15:55.954Z,175.42
2023-04-22T20:19:09.084Z,178.67
2023-04-22T20:22:21.850Z,179.53
2023-04-22T20:25:32.575Z,180.33
2023-04-22T20:28:48.695Z,184.73
2023-04-22T20:31:55.946Z,189.21
2023-04-22T20:35:04.056Z,195.10
2023-04-22T20:38:13.628Z,199.67
2023-04-22T20:41:27.198Z,198.80
2023-04-22T20:44:36.286Z,208.25
2023-04-22T20:47:43.228Z,204.90
2023-04-22T20:50:49.179Z,209.97
2023-04-22T20:53:56.185Z,210.36
2023-04-22T20:57:05.363Z,210.23
2023-04-22T21:00:14.534Z,213.10
2023-04-22T21:03:25.194Z,213.28
2023-04-22T21:06:36.938Z,226.03
2023-04-22T21:09:44.038Z,237.66
2023-04-22T21:12:58.684Z,228.13
2023-04-22T21:16:19.490Z,258.62
2023-04-22T21:19:27.740Z,270.14
2023-04-22T21:22:35.847Z,277.68
2023-04-22T21:25:44.249Z,300.54
2023-04-22T21:28:53.761Z,298.57
2023-04-22T21:32:08.848Z,303.75
2023-04-22T21:35:15.750Z,304.88
2023-04-22T21:38:22.791Z,286.79
2023-04-22T21:41:28.918Z,274.06
2023-04-22T21:44:39.411Z,263.88
2023-04-22T21:47:45.738Z,263.94
2023-04-22T21:50:53.323Z,264.81
2023-04-22T21:54:01.406Z,276.52
2023-04-22T21:57:10.548Z,275.58
2023-04-22T22:00:21.855Z,277.99
2023-04-22T22:03:29.136Z,276.52
2023-04-22T22:06:35.312Z,280.38
2023-04-22T22:09:43.399Z,273.50
2023-04-22T22:12:50.377Z,294.70
2023-04-22T22:16:00.448Z,279.19
2023-04-22T22:19:14.391Z,275.18
2023-04-22T22:22:21.220Z,261.81
2023-04-22T22:25:27.736Z,247.14
2023-04-22T22:28:37.428Z,235.14
2023-04-22T22:31:49.515Z,216.59
2023-04-22T22:34:57.008Z,217.53
2023-04-22T22:38:09.603Z,224.47
2023-04-22T22:41:17.420Z,233.88
2023-04-22T22:44:23.363Z,242.04
2023-04-22T22:47:33.115Z,246.71
2023-04-22T22:50:39.293Z,254.27
2023-04-22T22:53:46.084Z,265.27
2023-04-22T22:56:52.004Z,245.95
2023-04-22T22:59:58.740Z,250.15
2023-04-22T23:03:08.187Z,252.34
2023-04-22T23:06:18.660Z,259.11
2023-04-22T23:09:24.934Z,246.59
2023-04-22T23:12:36.480Z,237.93
2023-04-22T23:15:43.123Z,233.61
2023-04-22T23:18:55.211Z,239.52
2023-04-22T23:22:09.765Z,236.29
2023-04-22T23:25:28.749Z,250.94
2023-04-22T23:28:35.645Z,241.19
2023-04-22T23:31:50.386Z,237.69
2023-04-22T23:35:04.488Z,242.94
2023-04-22T23:38:14.861Z,310.13
2023-04-22T23:41:21.089Z,272.86
2023-04-22T23:44:28.059Z,244.91
2023-04-22T23:47:43.952Z,244.05
2023-04-22T23:50:53.384Z,257.65
2023-04-22T23:53:59.475Z,292.56
2023-04-22T23:57:07.152Z,305.60
